Time;durP1;ratioP1;P1;durP2;ratioP2;P2;SDS_P1;SDS_P2;PMS_P1;PMS_P2;Temp;Humidity;BMP_temperature;BMP_pressure;BME280_temperature;BME280_humidity;BME280_pressure;Samples;Min_cycle;Max_cycle;Signal;HPM_P1;HPM_P2
2022/10/31 00:03:16;;;;;;;6.18;4.18;;;21.60;50.90;;;;;;10492796;28;20097;-63
2022/10/31 00:08:17;;;;;;;5.45;3.55;;;21.60;50.80;;;;;;10485497;28;20044;-63
2022/10/31 00:13:18;;;;;;;4.68;3.92;;;21.60;50.60;;;;;;10476106;28;20028;-63
2022/10/31 00:18:19;;;;;;;5.75;4.03;;;21.60;50.60;;;;;;10460384;28;20041;-63
2022/10/31 00:23:19;;;;;;;4.43;3.75;;;21.60;50.50;;;;;;10492433;28;20082;-63
2022/10/31 00:28:20;;;;;;;4.32;3.55;;;21.50;50.30;;;;;;10451917;28;20133;-63
2022/10/31 00:33:21;;;;;;;3.90;2.83;;;21.60;50.40;;;;;;10451824;28;20108;-63
2022/10/31 00:38:22;;;;;;;7.13;4.00;;;21.60;50.40;;;;;;10462555;28;20715;-63
2022/10/31 00:43:22;;;;;;;4.38;3.30;;;21.60;50.30;;;;;;10491402;28;20017;-63
2022/10/31 00:48:23;;;;;;;6.03;4.00;;;21.50;50.20;;;;;;10454678;28;20020;-63
2022/10/31 00:53:24;;;;;;;5.15;3.38;;;21.50;50.10;;;;;;10490924;28;20029;-63
2022/10/31 00:58:24;;;;;;;6.65;3.20;;;21.60;50.10;;;;;;10490957;28;20024;-63
2022/10/31 01:03:30;;;;;;;4.65;3.60;;;21.50;50.00;;;;;;10491023;28;20056;-63
2022/10/31 01:08:31;;;;;;;3.83;2.90;;;21.50;50.00;;;;;;10484843;28;20029;-63
2022/10/31 01:13:32;;;;;;;4.63;3.10;;;21.50;49.80;;;;;;10473828;28;20131;-64
2022/10/31 01:18:34;;;;;;;4.45;3.05;;;21.50;49.80;;;;;;10489818;28;20024;-63
2022/10/31 01:23:35;;;;;;;5.15;3.58;;;21.50;49.80;;;;;;10460148;28;20029;-63
2022/10/31 01:28:39;;;;;;;4.82;3.38;;;21.50;49.70;;;;;;10482276;28;20087;-63
2022/10/31 01:33:40;;;;;;;4.43;2.97;;;21.50;49.70;;;;;;10472806;28;20027;-63
2022/10/31 01:38:40;;;;;;;4.40;2.70;;;21.50;49.60;;;;;;10490529;28;20497;-63
2022/10/31 01:43:52;;;;;;;4.03;2.97;;;21.50;49.50;;;;;;10489285;28;20111;-63
2022/10/31 01:48:55;;;;;;;3.67;3.10;;;21.50;49.60;;;;;;10479572;28;20418;-63
2022/10/31 01:54:01;;;;;;;3.78;2.67;;;21.50;49.50;;;;;;10480910;28;20060;-63
2022/10/31 01:59:05;;;;;;;3.80;2.35;;;21.50;49.30;;;;;;10483714;28;20027;-63
2022/10/31 02:04:06;;;;;;;4.95;3.75;;;21.50;49.30;;;;;;10488488;28;20052;-63
2022/10/31 02:09:07;;;;;;;3.28;2.50;;;21.50;49.30;;;;;;10464819;28;20028;-63
2022/10/31 02:14:07;;;;;;;5.80;2.90;;;21.50;49.20;;;;;;10453387;28;20025;-62
2022/10/31 02:19:11;;;;;;;3.55;2.70;;;21.40;49.10;;;;;;10456175;28;20495;-63
2022/10/31 02:24:49;;;;;;;5.28;2.85;;;21.50;49.10;;;;;;10487566;28;20522;-63
2022/10/31 02:30:22;;;;;;;5.32;2.95;;;21.50;49.40;;;;;;10468171;28;20087;-63
2022/10/31 02:35:50;;;;;;;5.25;2.60;;;21.50;49.10;;;;;;10465502;28;20128;-63
2022/10/31 02:41:04;;;;;;;3.53;2.63;;;21.40;49.10;;;;;;10475334;28;20364;-63
2022/10/31 02:46:17;;;;;;;3.75;2.33;;;21.40;48.90;;;;;;10454082;28;20021;-63
2022/10/31 02:51:18;;;;;;;4.68;2.67;;;21.40;48.70;;;;;;10486599;28;20396;-63
2022/10/31 02:56:19;;;;;;;3.70;2.65;;;21.40;48.70;;;;;;10485175;28;20012;-63
2022/10/31 03:01:26;;;;;;;3.55;2.33;;;21.40;48.60;;;;;;10460114;28;20068;-63
2022/10/31 03:06:38;;;;;;;6.28;3.03;;;21.40;48.50;;;;;;10464979;28;20029;-63
2022/10/31 03:12:10;;;;;;;3.72;2.05;;;21.40;48.60;;;;;;10485495;28;20040;-63
2022/10/31 03:17:29;;;;;;;3.50;2.20;;;21.40;48.40;;;;;;10477233;28;20510;-62
2022/10/31 03:22:32;;;;;;;3.38;2.33;;;21.40;48.40;;;;;;10455476;28;20077;-63
2022/10/31 03:27:37;;;;;;;2.92;2.10;;;21.40;48.20;;;;;;10485870;28;20135;-63
2022/10/31 03:32:55;;;;;;;3.03;1.92;;;21.40;48.20;;;;;;10472701;28;20132;-63
2022/10/31 03:37:58;;;;;;;2.47;1.65;;;21.40;48.40;;;;;;10456742;28;20057;-63
2022/10/31 03:43:04;;;;;;;3.15;2.00;;;21.40;48.10;;;;;;10485808;28;20024;-63
2022/10/31 03:48:05;;;;;;;2.58;1.88;;;21.30;48.00;;;;;;10485542;28;20020;-63
2022/10/31 03:53:16;;;;;;;3.17;2.00;;;21.40;48.00;;;;;;10467655;28;20086;-63
2022/10/31 03:58:27;;;;;;;3.20;2.08;;;21.30;48.50;;;;;;10482732;28;20016;-63
2022/10/31 04:03:33;;;;;;;3.75;2.42;;;21.40;48.00;;;;;;10484411;28;20090;-63
2022/10/31 04:08:42;;;;;;;3.47;1.90;;;21.30;47.80;;;;;;10475494;28;20028;-63
2022/10/31 04:13:45;;;;;;;2.63;2.08;;;21.30;47.70;;;;;;10460373;28;20033;-63
2022/10/31 04:18:46;;;;;;;2.55;1.75;;;21.40;47.70;;;;;;10484369;28;20415;-63
2022/10/31 04:23:47;;;;;;;4.20;2.40;;;21.40;47.60;;;;;;10488698;28;20025;-63
2022/10/31 04:28:47;;;;;;;1.95;1.70;;;21.30;47.50;;;;;;10483866;28;20389;-63
2022/10/31 04:33:48;;;;;;;2.92;1.67;;;21.30;47.50;;;;;;10489964;28;20119;-63
2022/10/31 04:38:49;;;;;;;3.30;1.60;;;21.30;47.40;;;;;;10491834;28;20107;-63
2022/10/31 04:43:49;;;;;;;4.13;1.95;;;21.30;47.40;;;;;;10491779;28;20123;-63
2022/10/31 04:48:50;;;;;;;3.72;1.80;;;21.30;47.40;;;;;;10480408;28;20648;-63
2022/10/31 04:53:51;;;;;;;2.92;2.13;;;21.30;47.30;;;;;;10489415;28;20707;-63
2022/10/31 04:58:51;;;;;;;4.55;1.88;;;21.30;47.30;;;;;;10471664;28;20112;-62
2022/10/31 05:03:52;;;;;;;3.10;1.60;;;21.30;47.20;;;;;;10484192;28;20075;-63
2022/10/31 05:08:53;;;;;;;3.05;1.80;;;21.30;47.20;;;;;;10484710;28;20155;-63
2022/10/31 05:13:53;;;;;;;3.72;1.67;;;21.30;47.10;;;;;;10465729;28;20112;-63
2022/10/31 05:18:54;;;;;;;3.45;1.75;;;21.30;47.10;;;;;;10456233;28;20052;-63
2022/10/31 05:23:55;;;;;;;3.28;1.73;;;21.20;46.90;;;;;;10450036;28;20094;-63
2022/10/31 05:28:55;;;;;;;3.40;1.40;;;21.30;46.90;;;;;;10479502;28;20057;-63
2022/10/31 05:33:56;;;;;;;2.72;2.30;;;21.30;46.90;;;;;;10448623;28;20060;-62
2022/10/31 05:38:57;;;;;;;2.45;1.63;;;21.20;46.80;;;;;;10470283;28;20395;-62
2022/10/31 05:43:57;;;;;;;6.05;2.55;;;21.20;46.90;;;;;;10472655;28;20056;-63
2022/10/31 05:48:58;;;;;;;9.07;4.05;;;21.20;47.00;;;;;;10490178;28;20104;-63
2022/10/31 05:53:58;;;;;;;9.60;4.25;;;20.80;53.00;;;;;;10486097;28;20515;-64
2022/10/31 06:02:57;;;;;;;18.35;4.25;;;20.80;55.50;;;;;;10654483;27;20329;-64
2022/10/31 06:07:58;;;;;;;10.68;4.57;;;19.90;57.90;;;;;;10575134;27;20466;-62
2022/10/31 06:12:59;;;;;;;12.52;4.28;;;19.30;60.40;;;;;;10588318;28;20020;-62
2022/10/31 06:18:02;;;;;;;13.60;4.45;;;19.00;61.60;;;;;;10582092;28;20479;-63
2022/10/31 06:23:04;;;;;;;14.77;4.38;;;18.90;61.60;;;;;;10570207;28;20018;-62
2022/10/31 06:28:05;;;;;;;17.58;5.38;;;18.90;62.00;;;;;;10577574;28;20023;-62
2022/10/31 06:33:06;;;;;;;21.88;5.57;;;18.90;62.50;;;;;;10578139;28;20379;-62
2022/10/31 06:38:07;;;;;;;23.55;6.75;;;18.80;62.80;;;;;;10583124;28;20629;-62
2022/10/31 06:43:08;;;;;;;19.00;5.65;;;18.70;62.10;;;;;;10597452;28;20109;-61
2022/10/31 06:48:08;;;;;;;38.25;20.08;;;18.70;62.90;;;;;;10562804;28;20418;-63
2022/10/31 06:53:09;;;;;;;47.13;11.07;;;18.70;65.40;;;;;;10570980;28;20070;-64
2022/10/31 06:58:11;;;;;;;52.40;12.10;;;18.80;63.90;;;;;;10575697;27;20043;-63
2022/10/31 07:03:15;;;;;;;60.63;12.95;;;18.70;63.90;;;;;;10581401;28;20378;-61
2022/10/31 07:08:15;;;;;;;46.95;10.85;;;18.70;64.60;;;;;;10589418;27;20106;-61
2022/10/31 07:13:16;;;;;;;52.22;12.90;;;18.70;65.00;;;;;;10537251;28;20026;-60
2022/10/31 07:18:17;;;;;;;43.15;11.38;;;18.70;65.80;;;;;;10535512;28;20109;-60
2022/10/31 07:23:18;;;;;;;30.77;8.98;;;18.60;65.90;;;;;;10545670;28;20542;-61
2022/10/31 07:28:19;;;;;;;23.58;7.50;;;18.60;66.00;;;;;;10546194;28;20024;-61
2022/10/31 07:33:20;;;;;;;21.08;7.22;;;18.50;65.70;;;;;;10540191;28;20075;-61
2022/10/31 07:38:20;;;;;;;31.83;8.43;;;18.50;64.90;;;;;;10531927;28;20474;-61
2022/10/31 07:43:22;;;;;;;16.50;6.10;;;18.50;65.30;;;;;;10544187;28;20081;-61
2022/10/31 07:48:23;;;;;;;17.90;7.28;;;18.50;64.90;;;;;;10542872;28;20026;-60
2022/10/31 07:53:23;;;;;;;17.60;5.18;;;18.50;64.50;;;;;;10558783;28;20405;-60
2022/10/31 07:58:25;;;;;;;16.88;6.35;;;18.50;64.30;;;;;;10527381;28;20268;-61
2022/10/31 08:03:25;;;;;;;15.77;6.03;;;18.50;64.20;;;;;;10572969;28;20020;-60
2022/10/31 08:08:27;;;;;;;14.77;4.93;;;18.50;64.30;;;;;;10550670;27;20020;-60
2022/10/31 08:13:28;;;;;;;12.20;5.15;;;18.50;64.60;;;;;;10529952;28;20024;-61
2022/10/31 08:18:29;;;;;;;15.02;5.70;;;18.50;64.80;;;;;;10512064;28;20020;-61
2022/10/31 08:23:30;;;;;;;13.63;5.28;;;18.50;64.90;;;;;;10528143;28;20799;-61
2022/10/31 08:28:31;;;;;;;14.90;5.38;;;18.50;64.60;;;;;;10529726;28;20034;-61
2022/10/31 08:33:31;;;;;;;9.73;4.63;;;18.50;64.40;;;;;;10543695;28;20508;-61
2022/10/31 08:38:32;;;;;;;13.00;5.53;;;18.50;64.20;;;;;;10528029;28;20031;-60
2022/10/31 08:43:32;;;;;;;12.10;4.28;;;18.50;64.20;;;;;;10540734;28;20027;-61
2022/10/31 08:48:33;;;;;;;13.20;5.30;;;18.50;64.60;;;;;;10531227;28;20111;-60
2022/10/31 08:53:34;;;;;;;9.50;4.35;;;18.50;64.70;;;;;;10532400;28;20015;-60
2022/10/31 08:58:34;;;;;;;8.25;4.15;;;18.50;64.90;;;;;;10530138;28;20115;-61
2022/10/31 09:03:35;;;;;;;9.05;4.88;;;18.50;64.90;;;;;;10543167;28;20174;-58
2022/10/31 09:08:36;;;;;;;11.50;4.00;;;18.50;65.00;;;;;;10541173;28;20017;-60
2022/10/31 09:13:37;;;;;;;12.15;4.25;;;18.50;65.20;;;;;;10543104;28;20028;-60
2022/10/31 09:18:38;;;;;;;10.45;3.80;;;18.50;65.20;;;;;;10530457;28;20024;-61
2022/10/31 09:23:38;;;;;;;23.50;5.43;;;18.50;65.30;;;;;;10545112;28;20039;-61
2022/10/31 09:28:39;;;;;;;10.23;3.95;;;18.50;66.20;;;;;;10555236;28;20078;-61
2022/10/31 09:33:41;;;;;;;8.35;3.97;;;18.50;66.00;;;;;;10538932;28;20030;-61
2022/10/31 09:38:42;;;;;;;10.13;5.10;;;18.50;66.00;;;;;;10558425;28;20032;-61
2022/10/31 09:44:08;;;;;;;10.52;4.40;;;18.50;66.10;;;;;;10547486;28;20008;-62
2022/10/31 09:49:48;;;;;;;9.80;4.82;;;18.50;66.20;;;;;;10567790;28;20028;-62
2022/10/31 09:54:58;;;;;;;9.90;4.43;;;18.50;66.30;;;;;;10547476;28;20016;-61
2022/10/31 10:00:00;;;;;;;11.57;4.15;;;18.50;66.40;;;;;;10546453;28;20125;-62
2022/10/31 10:05:12;;;;;;;10.18;4.68;;;18.50;66.50;;;;;;10569067;28;20023;-61
2022/10/31 10:10:49;;;;;;;7.78;3.97;;;18.40;66.60;;;;;;10564181;28;20078;-62
2022/10/31 10:16:33;;;;;;;8.15;4.00;;;18.40;66.70;;;;;;10526358;28;20056;-62
2022/10/31 10:21:45;;;;;;;8.88;3.92;;;18.40;66.80;;;;;;10510224;28;20052;-62
2022/10/31 10:27:30;;;;;;;7.35;3.80;;;18.40;66.80;;;;;;10527340;28;20016;-62
2022/10/31 10:32:56;;;;;;;12.52;5.32;;;18.40;66.80;;;;;;10543516;28;20074;-62
2022/10/31 10:38:14;;;;;;;9.85;4.32;;;18.40;67.00;;;;;;10568086;28;20085;-62
2022/10/31 10:43:33;;;;;;;10.93;5.10;;;18.40;67.10;;;;;;10544911;28;20024;-62
2022/10/31 10:48:48;;;;;;;8.77;3.95;;;18.40;67.10;;;;;;10552749;28;20383;-62
2022/10/31 10:54:13;;;;;;;9.10;4.07;;;18.40;67.20;;;;;;11343242;23;20098;-59
2022/10/31 10:59:19;;;;;;;15.98;4.88;;;18.40;67.30;;;;;;10439821;28;20175;-60
2022/10/31 11:04:34;;;;;;;13.73;4.50;;;18.40;67.50;;;;;;10460213;28;20029;-59
2022/10/31 11:09:36;;;;;;;19.08;4.85;;;18.40;67.70;;;;;;10446198;28;20639;-60
2022/10/31 11:14:53;;;;;;;16.85;5.03;;;18.40;67.80;;;;;;10449594;28;20104;-59
2022/10/31 11:20:16;;;;;;;20.77;6.15;;;18.40;67.90;;;;;;10448700;28;20067;-59
2022/10/31 11:25:25;;;;;;;18.58;5.35;;;18.40;67.90;;;;;;10450469;28;20394;-58
2022/10/31 11:30:25;;;;;;;24.58;4.90;;;18.40;69.00;;;;;;10450368;28;20406;-58
2022/10/31 11:35:27;;;;;;;17.20;5.03;;;18.40;69.30;;;;;;10451850;28;20060;-58
2022/10/31 11:40:28;;;;;;;13.32;5.18;;;18.40;69.50;;;;;;10449900;28;20459;-59
2022/10/31 11:45:33;;;;;;;10.70;5.07;;;18.40;69.40;;;;;;10432911;28;20029;-58
2022/10/31 11:50:39;;;;;;;15.82;5.35;;;18.40;68.40;;;;;;10450411;28;20107;-59
2022/10/31 11:55:40;;;;;;;12.48;5.47;;;18.40;68.30;;;;;;10446816;28;20041;-58
2022/10/31 12:00:50;;;;;;;12.07;5.03;;;18.40;68.50;;;;;;10459390;28;20490;-59
2022/10/31 12:06:18;;;;;;;15.77;5.75;;;18.40;68.70;;;;;;10434889;28;20499;-58
2022/10/31 12:12:03;;;;;;;12.57;5.07;;;18.40;68.60;;;;;;10442285;28;20017;-58
2022/10/31 12:17:27;;;;;;;19.33;6.93;;;18.40;68.60;;;;;;10464297;28;20032;-58
2022/10/31 12:23:06;;;;;;;13.52;5.50;;;18.40;68.60;;;;;;10463490;28;20052;-58
2022/10/31 12:28:46;;;;;;;13.35;6.07;;;18.40;68.70;;;;;;10463911;28;20068;-60
2022/10/31 12:34:14;;;;;;;12.38;6.13;;;18.40;68.70;;;;;;10447359;28;20044;-59
2022/10/31 12:39:28;;;;;;;11.30;5.50;;;18.40;68.80;;;;;;10444217;28;20032;-59
2022/10/31 12:45:17;;;;;;;8.40;5.95;;;18.40;68.90;;;;;;10462980;28;20021;-59
2022/10/31 12:50:58;;;;;;;11.23;6.10;;;18.40;68.90;;;;;;10448009;28;20020;-59
2022/10/31 12:56:04;;;;;;;11.02;6.03;;;18.40;68.90;;;;;;10426762;28;20049;-58
2022/10/31 13:01:23;;;;;;;12.52;6.47;;;18.40;69.00;;;;;;10422083;28;20029;-59
2022/10/31 13:06:38;;;;;;;10.77;6.03;;;18.40;69.00;;;;;;10418891;28;20039;-59
2022/10/31 13:11:52;;;;;;;9.43;6.03;;;18.40;69.10;;;;;;10404796;28;20120;-57
2022/10/31 13:16:55;;;;;;;9.45;6.07;;;18.40;69.10;;;;;;10428152;28;20395;-59
2022/10/31 13:22:25;;;;;;;11.52;6.38;;;18.30;69.10;;;;;;10408238;28;20112;-60
2022/10/31 13:27:33;;;;;;;14.07;7.17;;;18.30;69.20;;;;;;10434410;28;20021;-59
2022/10/31 13:32:45;;;;;;;12.18;6.93;;;18.40;69.50;;;;;;10461673;28;20025;-60
2022/10/31 13:37:57;;;;;;;11.10;6.15;;;18.30;69.50;;;;;;10445642;28;20090;-59
2022/10/31 13:43:19;;;;;;;10.35;7.03;;;18.30;69.60;;;;;;10461483;28;20029;-60
2022/10/31 13:48:25;;;;;;;13.90;7.25;;;18.30;69.60;;;;;;10445264;28;20041;-59
2022/10/31 13:53:45;;;;;;;14.32;7.32;;;18.30;69.60;;;;;;10412231;28;20538;-58
2022/10/31 13:59:10;;;;;;;;;;;18.30;69.70;;;;;;10411793;28;20037;-59
2022/10/31 14:04:22;;;;;;;16.83;7.40;;;18.30;69.70;;;;;;10430263;28;20282;-58
2022/10/31 14:09:37;;;;;;;68.30;12.80;;;18.30;69.80;;;;;;10419871;28;20013;-60
2022/10/31 14:14:51;;;;;;;58.25;14.45;;;18.30;70.50;;;;;;10397726;28;20036;-61
2022/10/31 14:20:09;;;;;;;54.53;13.90;;;18.40;71.00;;;;;;10410622;28;20025;-58
2022/10/31 14:25:35;;;;;;;69.35;17.42;;;18.40;71.40;;;;;;10442496;28;20025;-58
2022/10/31 14:30:36;;;;;;;81.53;18.33;;;18.40;71.40;;;;;;10446540;28;20021;-58
2022/10/31 14:36:03;;;;;;;80.07;18.80;;;18.40;72.10;;;;;;10448316;28;20013;-60
2022/10/31 14:41:45;;;;;;;55.53;16.90;;;18.50;72.20;;;;;;10451086;28;20494;-61
2022/10/31 14:47:01;;;;;;;76.32;18.63;;;18.50;72.20;;;;;;10415664;28;20021;-59
2022/10/31 14:52:05;;;;;;;69.28;16.92;;;18.50;72.50;;;;;;10445484;28;20021;-59
2022/10/31 14:58:01;;;;;;;91.25;19.55;;;18.50;72.80;;;;;;10438644;28;20083;-58
2022/10/31 15:03:19;;;;;;;63.83;15.57;;;18.60;72.90;;;;;;10383400;28;20060;-60
2022/10/31 15:08:53;;;;;;;81.65;17.08;;;18.50;72.80;;;;;;10431698;28;20025;-59
2022/10/31 15:13:56;;;;;;;60.50;16.52;;;18.60;73.00;;;;;;10423808;28;20091;-58
2022/10/31 15:19:07;;;;;;;60.15;15.13;;;18.50;72.90;;;;;;10422562;28;20025;-58
2022/10/31 15:24:18;;;;;;;58.05;14.77;;;18.50;73.30;;;;;;10444714;28;20048;-58
2022/10/31 15:29:24;;;;;;;50.90;14.15;;;18.50;72.80;;;;;;10452005;28;20025;-58
2022/10/31 15:34:43;;;;;;;39.75;13.35;;;18.50;72.90;;;;;;10448431;28;20026;-58
2022/10/31 15:39:45;;;;;;;45.13;13.80;;;18.50;72.80;;;;;;10438451;28;20029;-58
2022/10/31 15:44:55;;;;;;;42.63;13.48;;;18.40;72.80;;;;;;10453110;28;20528;-59
2022/10/31 15:49:58;;;;;;;27.77;11.88;;;18.40;72.70;;;;;;10438014;28;20061;-59
2022/10/31 15:55:17;;;;;;;35.72;12.65;;;18.40;72.60;;;;;;10430894;28;20044;-58
2022/10/31 16:00:27;;;;;;;24.85;11.10;;;18.40;72.40;;;;;;10448495;28;20025;-60
2022/10/31 16:05:36;;;;;;;26.13;11.05;;;18.30;72.40;;;;;;10452652;28;20040;-60
2022/10/31 16:10:37;;;;;;;25.60;11.55;;;18.30;72.20;;;;;;10441445;28;20021;-59
2022/10/31 16:15:46;;;;;;;24.23;10.75;;;18.30;72.20;;;;;;10433997;28;20045;-60
2022/10/31 16:20:52;;;;;;;;;;;18.30;72.20;;;;;;10438958;28;20036;-59
2022/10/31 16:25:53;;;;;;;29.00;12.05;;;18.30;72.10;;;;;;10416711;28;20360;-61
2022/10/31 16:30:55;;;;;;;32.60;10.93;;;18.30;72.10;;;;;;10421291;28;20030;-60
2022/10/31 16:35:58;;;;;;;39.35;11.23;;;18.30;72.90;;;;;;10429819;28;20024;-58
2022/10/31 16:41:01;;;;;;;33.22;11.73;;;18.40;72.60;;;;;;10464156;28;20029;-59
2022/10/31 16:46:01;;;;;;;45.40;13.25;;;18.40;73.20;;;;;;10448190;28;20036;-59
2022/10/31 16:51:02;;;;;;;27.58;10.50;;;18.50;73.00;;;;;;10443930;28;20483;-59
2022/10/31 16:56:04;;;;;;;37.10;12.85;;;18.50;72.60;;;;;;10427146;28;20079;-59
2022/10/31 17:01:06;;;;;;;33.17;13.05;;;18.50;73.10;;;;;;10442968;28;20025;-59
2022/10/31 17:06:12;;;;;;;25.40;9.75;;;18.50;73.40;;;;;;10415919;28;20033;-60
2022/10/31 17:11:22;;;;;;;26.70;10.52;;;18.50;73.60;;;;;;10426022;28;20068;-60
2022/10/31 17:16:23;;;;;;;36.92;13.85;;;18.40;73.10;;;;;;10424314;28;20028;-61
2022/10/31 17:21:26;;;;;;;31.63;12.68;;;18.50;73.80;;;;;;10436383;28;20102;-60
2022/10/31 17:26:27;;;;;;;25.27;10.43;;;18.60;75.00;;;;;;10407971;28;20361;-61
2022/10/31 17:31:31;;;;;;;22.33;8.80;;;18.70;75.90;;;;;;10410066;28;20107;-59
2022/10/31 17:36:33;;;;;;;35.72;10.65;;;18.80;75.90;;;;;;10462110;28;20052;-61
2022/10/31 17:41:33;;;;;;;29.23;10.30;;;18.70;75.30;;;;;;10455601;28;20115;-59
2022/10/31 17:46:34;;;;;;;21.92;8.55;;;18.70;74.90;;;;;;10404594;28;20096;-60
2022/10/31 17:51:35;;;;;;;36.88;9.95;;;18.70;75.00;;;;;;10410556;28;20104;-59
2022/10/31 17:56:35;;;;;;;29.73;8.68;;;18.60;74.90;;;;;;10461210;28;20072;-59
2022/10/31 18:01:37;;;;;;;37.65;9.57;;;18.60;75.20;;;;;;10458118;28;20124;-60
2022/10/31 18:06:38;;;;;;;20.95;7.95;;;18.60;74.90;;;;;;10416410;28;20109;-60
2022/10/31 18:11:39;;;;;;;22.73;8.55;;;18.50;75.30;;;;;;10387106;28;20026;-61
2022/10/31 18:16:39;;;;;;;18.38;7.28;;;18.40;75.10;;;;;;10405656;28;20104;-61
2022/10/31 18:21:41;;;;;;;14.05;7.18;;;18.40;75.10;;;;;;10409973;28;20068;-59
2022/10/31 18:26:41;;;;;;;16.65;8.13;;;18.40;74.90;;;;;;10433472;28;20033;-59
2022/10/31 18:31:42;;;;;;;18.60;6.93;;;18.40;74.80;;;;;;10387295;28;20108;-59
2022/10/31 18:36:43;;;;;;;21.85;8.10;;;18.40;74.50;;;;;;10406893;28;20467;-58
2022/10/31 18:41:43;;;;;;;27.02;8.93;;;18.40;74.20;;;;;;10433205;28;20718;-60
2022/10/31 18:46:44;;;;;;;20.67;9.40;;;18.40;74.20;;;;;;10403451;28;20033;-60
2022/10/31 18:51:45;;;;;;;19.40;7.18;;;18.40;74.30;;;;;;10421204;28;20091;-61
2022/10/31 18:56:45;;;;;;;16.73;7.05;;;18.40;74.30;;;;;;10437010;28;20123;-58
2022/10/31 19:01:46;;;;;;;29.77;7.80;;;18.40;74.20;;;;;;10429836;28;20824;-60
2022/10/31 19:06:47;;;;;;;14.13;6.47;;;18.40;74.00;;;;;;10433072;28;20181;-60
2022/10/31 19:11:47;;;;;;;11.77;6.13;;;18.30;73.90;;;;;;10410076;28;20170;-60
2022/10/31 19:16:48;;;;;;;13.90;7.10;;;18.30;73.90;;;;;;10411513;28;20578;-63
2022/10/31 19:21:49;;;;;;;22.05;8.27;;;18.30;73.80;;;;;;10423819;28;20087;-63
2022/10/31 19:26:49;;;;;;;12.35;6.28;;;18.30;73.70;;;;;;10455022;28;20048;-61
2022/10/31 19:31:50;;;;;;;14.20;6.03;;;18.20;73.70;;;;;;10446621;28;20454;-62
2022/10/31 19:36:52;;;;;;;10.23;6.03;;;18.30;73.70;;;;;;10408691;28;20026;-62
2022/10/31 19:41:52;;;;;;;13.52;6.15;;;18.30;73.60;;;;;;10409205;28;20049;-61
2022/10/31 19:46:53;;;;;;;12.43;6.38;;;18.20;73.40;;;;;;10431916;28;20048;-62
2022/10/31 19:51:54;;;;;;;17.73;6.78;;;18.30;73.50;;;;;;10443903;28;20103;-63
2022/10/31 19:56:54;;;;;;;13.75;7.07;;;18.30;73.50;;;;;;10430798;28;20124;-63
2022/10/31 20:01:55;;;;;;;14.07;6.50;;;18.20;73.40;;;;;;10449472;28;20067;-63
2022/10/31 20:06:56;;;;;;;14.52;6.22;;;18.20;73.40;;;;;;10454030;28;20104;-63
2022/10/31 20:11:56;;;;;;;10.65;5.57;;;18.20;73.60;;;;;;10444505;28;20105;-63
2022/10/31 20:16:57;;;;;;;14.73;6.00;;;18.30;73.80;;;;;;10447346;28;20404;-63
2022/10/31 20:21:57;;;;;;;14.13;6.22;;;18.30;73.90;;;;;;10447998;28;20108;-64
2022/10/31 20:26:58;;;;;;;10.52;6.50;;;18.30;73.90;;;;;;10447477;28;20013;-64
2022/10/31 20:31:59;;;;;;;16.63;6.38;;;18.30;73.90;;;;;;10445189;28;20017;-65
2022/10/31 20:37:00;;;;;;;14.10;6.20;;;18.30;73.90;;;;;;10427717;28;20716;-65
2022/10/31 20:42:00;;;;;;;16.35;5.72;;;18.30;74.00;;;;;;10422045;28;20080;-64
2022/10/31 20:47:01;;;;;;;16.65;6.70;;;18.40;74.00;;;;;;10411208;28;20200;-64
2022/10/31 20:52:02;;;;;;;9.80;5.32;;;18.30;71.90;;;;;;10442192;28;20029;-64
2022/10/31 20:57:02;;;;;;;12.60;5.78;;;18.40;70.90;;;;;;10423356;28;20645;-64
2022/10/31 21:02:03;;;;;;;10.30;5.03;;;18.40;70.10;;;;;;10430027;28;20375;-64
2022/10/31 21:07:04;;;;;;;10.60;5.72;;;18.50;69.30;;;;;;10409627;28;20025;-64
2022/10/31 21:12:05;;;;;;;9.27;4.95;;;18.50;68.70;;;;;;10418557;28;20021;-64
2022/10/31 21:17:05;;;;;;;10.23;4.47;;;18.50;68.10;;;;;;10436177;28;20757;-64
2022/10/31 21:22:06;;;;;;;8.07;4.65;;;18.50;67.50;;;;;;10439759;28;20037;-64
2022/10/31 21:27:07;;;;;;;7.90;4.28;;;18.50;67.10;;;;;;10463135;28;20610;-65
2022/10/31 21:32:07;;;;;;;6.82;4.68;;;18.60;66.70;;;;;;10445787;28;20053;-64
2022/10/31 21:37:08;;;;;;;6.53;4.15;;;18.50;66.30;;;;;;10423840;28;20067;-64
2022/10/31 21:42:09;;;;;;;8.70;5.03;;;18.60;65.90;;;;;;10405777;28;20155;-64
2022/10/31 21:47:09;;;;;;;6.90;4.00;;;18.60;65.60;;;;;;10406104;28;20395;-64
2022/10/31 21:52:11;;;;;;;7.40;4.00;;;18.50;65.20;;;;;;10400804;28;20491;-64
2022/10/31 21:57:11;;;;;;;5.82;4.13;;;18.60;65.00;;;;;;10445390;28;20170;-64
2022/10/31 22:02:12;;;;;;;7.88;3.58;;;18.60;64.70;;;;;;10412771;28;20183;-64
2022/10/31 22:07:13;;;;;;;6.47;3.70;;;18.50;64.30;;;;;;10419510;28;20053;-64
2022/10/31 22:12:14;;;;;;;10.98;4.63;;;18.50;64.10;;;;;;10462188;28;20671;-64
2022/10/31 22:17:15;;;;;;;7.90;4.07;;;18.50;63.80;;;;;;10445199;28;20162;-64
2022/10/31 22:22:16;;;;;;;7.15;4.00;;;18.50;63.50;;;;;;10455186;28;20122;-65
2022/10/31 22:27:16;;;;;;;5.43;3.42;;;18.50;63.40;;;;;;10404158;28;20080;-64
2022/10/31 22:32:17;;;;;;;8.18;3.83;;;18.50;63.20;;;;;;10403551;28;20719;-64
2022/10/31 22:37:18;;;;;;;7.50;5.20;;;18.50;62.90;;;;;;10412517;28;20155;-64
2022/10/31 22:42:18;;;;;;;4.88;3.25;;;18.60;62.80;;;;;;10439229;28;20034;-64
2022/10/31 22:47:19;;;;;;;5.28;3.55;;;18.50;62.60;;;;;;10426145;28;20067;-64
2022/10/31 22:52:20;;;;;;;8.02;4.65;;;18.60;62.40;;;;;;10468983;28;20104;-64
2022/10/31 22:57:20;;;;;;;5.25;3.08;;;18.60;62.20;;;;;;10436739;28;20140;-63
2022/10/31 23:02:21;;;;;;;5.30;3.15;;;18.50;62.00;;;;;;10437478;28;20061;-64
2022/10/31 23:07:21;;;;;;;7.68;3.80;;;18.60;61.80;;;;;;10411072;28;20114;-63
2022/10/31 23:17:41;;;;;;;7.75;3.20;;;18.60;61.50;;;;;;10444933;28;20037;-63
2022/10/31 23:22:42;;;;;;;5.35;3.50;;;18.60;61.40;;;;;;10431892;28;20497;-64
2022/10/31 23:27:43;;;;;;;4.25;3.20;;;18.50;61.20;;;;;;10414600;28;20025;-63
2022/10/31 23:32:43;;;;;;;4.90;3.17;;;18.60;61.10;;;;;;10449398;28;20064;-63
2022/10/31 23:37:44;;;;;;;5.68;3.25;;;18.50;60.90;;;;;;10425998;28;20049;-64
2022/10/31 23:42:45;;;;;;;4.07;3.03;;;18.50;60.80;;;;;;10423465;28;20064;-64
2022/10/31 23:47:45;;;;;;;5.45;3.10;;;18.50;60.60;;;;;;10426817;28;20064;-64
2022/10/31 23:52:46;;;;;;;4.03;3.00;;;18.50;60.50;;;;;;10447742;28;20126;-64
2022/10/31 23:57:47;;;;;;;4.13;3.00;;;18.50;60.40;;;;;;10440518;28;20051;-63
